Time;durP1;ratioP1;P1;durP2;ratioP2;P2;SDS_P1;SDS_P2;PMS_P1;PMS_P2;Temp;Humidity;BMP_temperature;BMP_pressure;BME280_temperature;BME280_humidity;BME280_pressure;Samples;Min_cycle;Max_cycle;Signal;HPM_P1;HPM_P2
2023/09/28 00:00:37;;;;;;;;;;;;;;;;;;5105949;28;19924;-59
2023/09/28 00:03:08;;;;;;;;;;;;;;;;;;5101654;28;19923;-59
2023/09/28 00:05:34;;;;;;;;;;;;;;;;;;5105967;28;19923;-59
2023/09/28 00:08:00;;;;;;;;;;;;;;;;;;5106266;28;19924;-60
2023/09/28 00:10:26;;;;;;;;;;;;;;;;;;5106669;28;19935;-60
2023/09/28 00:12:52;;;;;;;;;;;;;;;;;;5106947;28;19930;-60
2023/09/28 00:15:21;;;;;;;;;;;;;;;;;;5087620;28;20011;-60
2023/09/28 00:17:47;;;;;;;;;;;;;;;;;;5106843;28;19924;-60
2023/09/28 00:20:14;;;;;;;;;;;;;;;;;;5105304;28;20014;-59
2023/09/28 00:22:42;;;;;;;;;;;;;;;;;;5106855;28;19924;-59
2023/09/28 00:25:10;;;;;;;;;;;;;;;;;;5105972;28;19927;-59
2023/09/28 00:27:37;;;;;;;;;;;;;;;;;;5105736;28;20327;-59
2023/09/28 00:30:03;;;;;;;;;;;;;;;;;;5105131;28;19931;-59
2023/09/28 00:32:29;;;;;;;;;;;;;;;;;;5105776;28;20130;-59
2023/09/28 00:34:55;;;;;;;;;;;;;;;;;;5105939;28;20460;-59
2023/09/28 00:37:21;;;;;;;;;;;;;;;;;;5106756;28;19920;-60
2023/09/28 00:39:48;;;;;;;;;;;;;;;;;;5104979;28;19934;-59
2023/09/28 00:42:16;;;;;;;;;;;;;;;;;;5106234;28;19973;-59
2023/09/28 00:44:42;;;;;;;;;;;;;;;;;;5104452;28;19927;-59
2023/09/28 00:47:08;;;;;;;;;;;;;;;;;;5088085;28;19946;-59
2023/09/28 00:49:34;;;;;;;;;;;;;;;;;;5105522;28;20400;-59
2023/09/28 00:51:59;;;;;;;;;;;;;;;;;;5105866;28;19924;-59
2023/09/28 00:54:27;;;;;;;;;;;;;;;;;;5105892;28;19930;-59
2023/09/28 00:56:53;;;;;;;;;;;;;;;;;;5106097;28;19924;-59
2023/09/28 00:59:20;;;;;;;;;;;;;;;;;;5104656;28;19927;-59
2023/09/28 01:01:47;;;;;;;;;;;;;;;;;;5106322;28;19924;-59
2023/09/28 01:04:13;;;;;;;;;;;;;;;;;;5087280;28;19923;-59
2023/09/28 01:06:39;;;;;;;;;;;;;;;;;;5105810;28;19950;-59
2023/09/28 01:09:08;;;;;;;;;;;;;;;;;;5104526;28;19925;-59
2023/09/28 01:11:34;;;;;;;;;;;;;;;;;;5105436;28;20361;-59
2023/09/28 01:14:00;;;;;;;;;;;;;;;;;;5176091;22;19956;-62
2023/09/28 01:16:26;;;;;;;;;;;;;;;;;;5059150;28;19932;-60
2023/09/28 01:18:52;;;;;;;;;;;;;;;;;;5061911;28;19941;-59
2023/09/28 01:21:18;;;;;;;;;;;;;;;;;;5064491;28;19929;-59
2023/09/28 01:23:45;;;;;;;;;;;;;;;;;;5064437;28;20007;-59
2023/09/28 01:26:11;;;;;;;;;;;;;;;;;;5064330;28;19924;-59
2023/09/28 01:28:38;;;;;;;;;;;;;;;;;;5063559;28;19920;-59
2023/09/28 01:31:04;;;;;;;;;;;;;;;;;;5062012;28;19924;-60
2023/09/28 01:33:30;;;;;;;;;;;;;;;;;;5063176;28;20241;-60
2023/09/28 01:35:56;;;;;;;;;;;;;;;;;;5060725;28;19921;-61
2023/09/28 01:38:22;;;;;;;;;;;;;;;;;;5063247;28;20032;-60
2023/09/28 01:40:48;;;;;;;;;;;;;;;;;;5063050;28;19964;-59
2023/09/28 01:43:16;;;;;;;;;;;;;;;;;;5063381;28;19935;-59
2023/09/28 01:45:42;;;;;;;;;;;;;;;;;;5062968;28;19931;-59
2023/09/28 01:48:08;;;;;;;;;;;;;;;;;;5063797;28;19933;-59
2023/09/28 01:50:34;;;;;;;;;;;;;;;;;;5064420;28;19924;-59
2023/09/28 01:53:00;;;;;;;;;;;;;;;;;;5062754;28;19928;-60
2023/09/28 01:55:26;;;;;;;;;;;;;;;;;;5064476;28;20007;-59
2023/09/28 01:57:52;;;;;;;;;;;;;;;;;;5046308;28;19968;-59
2023/09/28 02:00:24;;;;;;;;;;;;;;;;;;5062729;28;19928;-59
2023/09/28 02:02:50;;;;;;;;;;;;;;;;;;5063712;28;20199;-59
2023/09/28 02:05:16;;;;;;;;;;;;;;;;;;5062744;28;20482;-59
2023/09/28 02:07:42;;;;;;;;;;;;;;;;;;5064632;28;19925;-59
2023/09/28 02:10:09;;;;;;;;;;;;;;;;;;5063991;28;19973;-59
2023/09/28 02:12:35;;;;;;;;;;;;;;;;;;5064383;28;19924;-59
2023/09/28 02:15:03;;;;;;;;;;;;;;;;;;5038625;28;19931;-59
2023/09/28 02:17:29;;;;;;;;;;;;;;;;;;5057391;28;19931;-60
2023/09/28 02:19:55;;;;;;;;;;;;;;;;;;5056174;28;19925;-59
2023/09/28 02:22:21;;;;;;;;;;;;;;;;;;5063745;28;20726;-60
2023/09/28 02:24:47;;;;;;;;;;;;;;;;;;5063836;28;20561;-60
2023/09/28 02:27:13;;;;;;;;;;;;;;;;;;5045399;28;19925;-59
2023/09/28 02:29:39;;;;;;;;;;;;;;;;;;5062920;28;19928;-60
2023/09/28 02:32:05;;;;;;;;;;;;;;;;;;5063093;28;20309;-60
2023/09/28 02:34:31;;;;;;;;;;;;;;;;;;5063302;28;20404;-60
2023/09/28 02:36:56;;;;;;;;;;;;;;;;;;5045759;28;19932;-59
2023/09/28 02:39:22;;;;;;;;;;;;;;;;;;5062926;28;19925;-59
2023/09/28 02:41:49;;;;;;;;;;;;;;;;;;5052255;28;20497;-59
2023/09/28 02:44:15;;;;;;;;;;;;;;;;;;5083130;28;20347;-59
2023/09/28 02:46:41;;;;;;;;;;;;;;;;;;5083475;28;19931;-59
2023/09/28 02:49:07;;;;;;;;;;;;;;;;;;5075756;28;19924;-59
2023/09/28 02:51:33;;;;;;;;;;;;;;;;;;5073176;28;20286;-59
2023/09/28 02:53:59;;;;;;;;;;;;;;;;;;5074451;28;19928;-59
2023/09/28 02:56:25;;;;;;;;;;;;;;;;;;5083343;28;19924;-59
2023/09/28 02:58:51;;;;;;;;;;;;;;;;;;5083099;28;19935;-59
2023/09/28 03:01:23;;;;;;;;;;;;;;;;;;5082665;28;19932;-59
2023/09/28 03:03:50;;;;;;;;;;;;;;;;;;5083643;28;20035;-59
2023/09/28 03:06:16;;;;;;;;;;;;;;;;;;5083549;28;19978;-59
2023/09/28 03:08:42;;;;;;;;;;;;;;;;;;5083464;28;19924;-59
2023/09/28 03:11:08;;;;;;;;;;;;;;;;;;5083126;28;20010;-59
2023/09/28 03:13:34;;;;;;;;;;;;;;;;;;5084777;28;19924;-60
2023/09/28 03:16:00;;;;;;;;;;;;;;;;;;5082726;28;19970;-59
2023/09/28 03:18:26;;;;;;;;;;;;;;;;;;5083442;28;20023;-59
2023/09/28 03:20:53;;;;;;;;;;;;;;;;;;5088104;28;20019;-59
2023/09/28 03:23:19;;;;;;;;;;;;;;;;;;5076265;28;19928;-59
2023/09/28 03:25:45;;;;;;;;;;;;;;;;;;5083077;28;19931;-59
2023/09/28 03:28:11;;;;;;;;;;;;;;;;;;5083263;28;19984;-59
2023/09/28 03:30:38;;;;;;;;;;;;;;;;;;5064485;28;19928;-59
2023/09/28 03:33:04;;;;;;;;;;;;;;;;;;5083848;28;19931;-60
2023/09/28 03:35:30;;;;;;;;;;;;;;;;;;5082516;28;19924;-59
2023/09/28 03:37:59;;;;;;;;;;;;;;;;;;5082398;28;19924;-59
2023/09/28 03:40:33;;;;;;;;;;;;;;;;;;5085396;28;19924;-59
2023/09/28 03:42:59;;;;;;;;;;;;;;;;;;5086673;28;19989;-59
2023/09/28 03:45:25;;;;;;;;;;;;;;;;;;5085476;28;20420;-59
2023/09/28 03:47:51;;;;;;;;;;;;;;;;;;5089408;28;19950;-59
2023/09/28 03:50:17;;;;;;;;;;;;;;;;;;5085428;28;20429;-59
2023/09/28 03:52:43;;;;;;;;;;;;;;;;;;5078791;28;19977;-61
2023/09/28 03:55:09;;;;;;;;;;;;;;;;;;5075611;28;19928;-59
2023/09/28 03:57:35;;;;;;;;;;;;;;;;;;5074406;28;19970;-59
2023/09/28 04:00:02;;;;;;;;;;;;;;;;;;5085860;28;19924;-59
2023/09/28 04:02:28;;;;;;;;;;;;;;;;;;5086081;28;19924;-59
2023/09/28 04:04:54;;;;;;;;;;;;;;;;;;5086495;28;19965;-60
2023/09/28 04:07:20;;;;;;;;;;;;;;;;;;5084695;28;19931;-59
2023/09/28 04:09:46;;;;;;;;;;;;;;;;;;5086805;28;19928;-60
2023/09/28 04:12:12;;;;;;;;;;;;;;;;;;5082840;28;19927;-60
2023/09/28 04:14:37;;;;;;;;;;;;;;;;;;5083145;28;19924;-59
2023/09/28 04:17:03;;;;;;;;;;;;;;;;;;5084386;28;19930;-59
2023/09/28 04:19:30;;;;;;;;;;;;;;;;;;5078674;28;19924;-59
2023/09/28 04:21:56;;;;;;;;;;;;;;;;;;5078179;28;19935;-59
2023/09/28 04:24:22;;;;;;;;;;;;;;;;;;5086285;28;20137;-59
2023/09/28 04:26:48;;;;;;;;;;;;;;;;;;5086462;28;19930;-58
2023/09/28 04:29:13;;;;;;;;;;;;;;;;;;5085059;28;20305;-59
2023/09/28 04:31:40;;;;;;;;;;;;;;;;;;5068351;28;19924;-59
2023/09/28 04:34:07;;;;;;;;;;;;;;;;;;5086415;28;19928;-59
2023/09/28 04:36:33;;;;;;;;;;;;;;;;;;5051449;28;19920;-59
2023/09/28 04:38:59;;;;;;;;;;;;;;;;;;5085528;28;20304;-59
2023/09/28 04:41:25;;;;;;;;;;;;;;;;;;5086189;28;20003;-58
2023/09/28 04:43:51;;;;;;;;;;;;;;;;;;5081208;28;19924;-58
2023/09/28 04:46:17;;;;;;;;;;;;;;;;;;5082713;28;19935;-59
2023/09/28 04:48:43;;;;;;;;;;;;;;;;;;5082443;28;20023;-59
2023/09/28 04:51:09;;;;;;;;;;;;;;;;;;5080064;28;19935;-59
2023/09/28 04:53:34;;;;;;;;;;;;;;;;;;5080182;28;20316;-58
2023/09/28 04:56:00;;;;;;;;;;;;;;;;;;5083864;28;19970;-59
2023/09/28 04:58:26;;;;;;;;;;;;;;;;;;5085172;28;19924;-59
2023/09/28 05:00:52;;;;;;;;;;;;;;;;;;5085571;28;19928;-59
2023/09/28 05:03:18;;;;;;;;;;;;;;;;;;5084990;28;20386;-59
2023/09/28 05:05:44;;;;;;;;;;;;;;;;;;5081566;28;19954;-60
2023/09/28 05:08:12;;;;;;;;;;;;;;;;;;5085407;28;19924;-60
2023/09/28 05:10:38;;;;;;;;;;;;;;;;;;5085668;28;19924;-59
2023/09/28 05:13:05;;;;;;;;;;;;;;;;;;5083671;28;20424;-59
2023/09/28 05:15:32;;;;;;;;;;;;;;;;;;5084549;28;20005;-59
2023/09/28 05:17:58;;;;;;;;;;;;;;;;;;5085067;28;19930;-59
2023/09/28 05:20:24;;;;;;;;;;;;;;;;;;5084629;28;19924;-59
2023/09/28 05:22:50;;;;;;;;;;;;;;;;;;5085331;28;19975;-59
2023/09/28 05:25:15;;;;;;;;;;;;;;;;;;5083563;28;19951;-60
2023/09/28 05:27:41;;;;;;;;;;;;;;;;;;5063281;28;19946;-60
2023/09/28 05:30:07;;;;;;;;;;;;;;;;;;5082201;28;19920;-59
2023/09/28 05:32:33;;;;;;;;;;;;;;;;;;5076451;28;19990;-60
2023/09/28 05:35:00;;;;;;;;;;;;;;;;;;5080838;28;19938;-60
2023/09/28 05:37:26;;;;;;;;;;;;;;;;;;5080348;28;19931;-59
2023/09/28 05:39:52;;;;;;;;;;;;;;;;;;5082618;28;20590;-60
2023/09/28 05:42:18;;;;;;;;;;;;;;;;;;5082469;28;19928;-60
2023/09/28 05:44:44;;;;;;;;;;;;;;;;;;5081340;28;19928;-60
2023/09/28 05:47:10;;;;;;;;;;;;;;;;;;5082306;28;19928;-62
2023/09/28 05:49:36;;;;;;;;;;;;;;;;;;5081858;28;19935;-60
2023/09/28 05:52:02;;;;;;;;;;;;;;;;;;5082127;28;20016;-60
2023/09/28 05:54:28;;;;;;;;;;;;;;;;;;5082217;28;20309;-60
2023/09/28 05:56:54;;;;;;;;;;;;;;;;;;5063537;28;20011;-60
2023/09/28 05:59:20;;;;;;;;;;;;;;;;;;5063145;28;20643;-60
2023/09/28 06:01:46;;;;;;;;;;;;;;;;;;5080269;28;19928;-61
2023/09/28 06:04:12;;;;;;;;;;;;;;;;;;5082088;28;19928;-61
2023/09/28 06:06:38;;;;;;;;;;;;;;;;;;5082099;28;19932;-60
2023/09/28 06:09:04;;;;;;;;;;;;;;;;;;5062691;28;19977;-61
2023/09/28 06:11:30;;;;;;;;;;;;;;;;;;5081615;28;19983;-60
2023/09/28 06:13:56;;;;;;;;;;;;;;;;;;5079183;28;20571;-58
2023/09/28 06:16:22;;;;;;;;;;;;;;;;;;5081028;28;19934;-58
2023/09/28 06:18:47;;;;;;;;;;;;;;;;;;5081447;28;19928;-58
2023/09/28 06:21:13;;;;;;;;;;;;;;;;;;5081156;28;19928;-58
2023/09/28 06:23:40;;;;;;;;;;;;;;;;;;5082260;28;19939;-58
2023/09/28 06:26:06;;;;;;;;;;;;;;;;;;5081181;28;19932;-59
2023/09/28 06:28:32;;;;;;;;;;;;;;;;;;5079261;28;19928;-58
2023/09/28 06:30:58;;;;;;;;;;;;;;;;;;5079507;28;19976;-57
2023/09/28 06:33:25;;;;;;;;;;;;;;;;;;5081824;28;19924;-57
2023/09/28 06:35:51;;;;;;;;;;;;;;;;;;5081359;28;19985;-58
2023/09/28 06:38:18;;;;;;;;;;;;;;;;;;5081407;28;19928;-58
2023/09/28 06:40:45;;;;;;;;;;;;;;;;;;5075277;28;19979;-58
2023/09/28 06:43:11;;;;;;;;;;;;;;;;;;5080712;28;20482;-58
2023/09/28 06:45:37;;;;;;;;;;;;;;;;;;5081429;28;19932;-57
2023/09/28 06:48:04;;;;;;;;;;;;;;;;;;5080914;28;19924;-60
2023/09/28 06:50:30;;;;;;;;;;;;;;;;;;5071720;28;19920;-60
2023/09/28 06:52:56;;;;;;;;;;;;;;;;;;5081130;28;19955;-59
2023/09/28 06:55:23;;;;;;;;;;;;;;;;;;5081124;28;19930;-60
2023/09/28 06:57:49;;;;;;;;;;;;;;;;;;5080600;28;19934;-60
2023/09/28 07:00:16;;;;;;;;;;;;;;;;;;5080394;28;20543;-60
2023/09/28 07:02:46;;;;;;;;;;;;;;;;;;5080764;28;19924;-59
2023/09/28 07:05:13;;;;;;;;;;;;;;;;;;5081011;28;19931;-59
2023/09/28 07:07:39;;;;;;;;;;;;;;;;;;5080527;28;19985;-59
2023/09/28 07:10:05;;;;;;;;;;;;;;;;;;5080457;28;20124;-60
2023/09/28 07:12:31;;;;;;;;;;;;;;;;;;5079967;28;19924;-59
2023/09/28 07:14:57;;;;;;;;;;;;;;;;;;5082115;28;19928;-60
2023/09/28 07:17:22;;;;;;;;;;;;;;;;;;5082202;28;19935;-60
2023/09/28 07:19:48;;;;;;;;;;;;;;;;;;5083414;28;19981;-60
2023/09/28 07:22:15;;;;;;;;;;;;;;;;;;5085199;28;19936;-60
2023/09/28 07:24:41;;;;;;;;;;;;;;;;;;5084119;28;19986;-59
2023/09/28 07:27:07;;;;;;;;;;;;;;;;;;5083896;28;20014;-60
2023/09/28 07:29:33;;;;;;;;;;;;;;;;;;5083352;28;20034;-60
2023/09/28 07:31:59;;;;;;;;;;;;;;;;;;5083683;28;20469;-60
2023/09/28 07:34:25;;;;;;;;;;;;;;;;;;5082782;28;19931;-60
2023/09/28 07:36:51;;;;;;;;;;;;;;;;;;5081460;28;19943;-60
2023/09/28 07:39:16;;;;;;;;;;;;;;;;;;5063881;28;19931;-65
2023/09/28 07:41:44;;;;;;;;;;;;;;;;;;5085130;28;20027;-64
2023/09/28 07:44:10;;;;;;;;;;;;;;;;;;5083933;28;19943;-64
2023/09/28 07:46:36;;;;;;;;;;;;;;;;;;5083809;28;19928;-64
2023/09/28 07:49:02;;;;;;;;;;;;;;;;;;5083411;28;19928;-64
2023/09/28 07:51:28;;;;;;;;;;;;;;;;;;5081267;28;19985;-63
2023/09/28 07:53:54;;;;;;;;;;;;;;;;;;5084299;28;19970;-64
2023/09/28 07:56:20;;;;;;;;;;;;;;;;;;5071148;28;20438;-64
2023/09/28 07:58:46;;;;;;;;;;;;;;;;;;5082277;28;19924;-65
2023/09/28 08:01:14;;;;;;;;;;;;;;;;;;5080828;28;19970;-64
2023/09/28 08:03:40;;;;;;;;;;;;;;;;;;5074617;28;19994;-64
2023/09/28 08:06:09;;;;;;;;;;;;;;;;;;5078152;28;20685;-64
2023/09/28 08:08:35;;;;;;;;;;;;;;;;;;5083467;28;19939;-65
2023/09/28 08:11:01;;;;;;;;;;;;;;;;;;5081624;28;19924;-65
2023/09/28 08:13:26;;;;;;;;;;;;;;;;;;5079829;28;19997;-64
2023/09/28 08:15:53;;;;;;;;;;;;;;;;;;5069070;28;19977;-66
2023/09/28 08:18:19;;;;;;;;;;;;;;;;;;5083925;28;19928;-65
2023/09/28 08:20:46;;;;;;;;;;;;;;;;;;5080771;28;19928;-64
2023/09/28 08:23:12;;;;;;;;;;;;;;;;;;5083191;28;19924;-64
2023/09/28 08:25:37;;;;;;;;;;;;;;;;;;5063293;28;19929;-64
2023/09/28 08:28:03;;;;;;;;;;;;;;;;;;5064438;28;19936;-64
2023/09/28 08:30:29;;;;;;;;;;;;;;;;;;5083164;28;19932;-64
2023/09/28 08:32:55;;;;;;;;;;;;;;;;;;5082959;28;19924;-64
2023/09/28 08:35:22;;;;;;;;;;;;;;;;;;5082220;28;19932;-64
2023/09/28 08:37:47;;;;;;;;;;;;;;;;;;5081884;28;19932;-64
2023/09/28 08:40:13;;;;;;;;;;;;;;;;;;5080992;28;19951;-65
2023/09/28 08:42:39;;;;;;;;;;;;;;;;;;5079487;28;19955;-65
2023/09/28 08:45:05;;;;;;;;;;;;;;;;;;5064180;28;20301;-65
2023/09/28 08:47:31;;;;;;;;;;;;;;;;;;5082929;28;20019;-64
2023/09/28 08:49:58;;;;;;;;;;;;;;;;;;5074065;28;20456;-65
2023/09/28 08:52:24;;;;;;;;;;;;;;;;;;5081890;28;20022;-65
2023/09/28 08:54:52;;;;;;;;;;;;;;;;;;5082595;28;20019;-65
2023/09/28 08:57:18;;;;;;;;;;;;;;;;;;5041366;28;20006;-65
2023/09/28 08:59:44;;;;;;;;;;;;;;;;;;5081971;28;19996;-65
2023/09/28 09:02:10;;;;;;;;;;;;;;;;;;5082609;28;20834;-65
2023/09/28 09:04:36;;;;;;;;;;;;;;;;;;5084965;28;19938;-65
2023/09/28 09:07:01;;;;;;;;;;;;;;;;;;5082792;28;19927;-65
2023/09/28 09:09:27;;;;;;;;;;;;;;;;;;5073145;28;19968;-65
2023/09/28 09:11:53;;;;;;;;;;;;;;;;;;5082501;28;20472;-65
2023/09/28 09:14:20;;;;;;;;;;;;;;;;;;5080451;28;20390;-64
2023/09/28 09:16:46;;;;;;;;;;;;;;;;;;5083169;28;19928;-64
2023/09/28 09:19:13;;;;;;;;;;;;;;;;;;5081746;28;19977;-64
2023/09/28 09:21:40;;;;;;;;;;;;;;;;;;5081212;28;19938;-64
2023/09/28 09:24:10;;;;;;;;;;;;;;;;;;5063798;28;19938;-64
2023/09/28 09:26:36;;;;;;;;;;;;;;;;;;5069130;28;19975;-64
2023/09/28 09:29:02;;;;;;;;;;;;;;;;;;5083566;28;19971;-66
2023/09/28 09:31:28;;;;;;;;;;;;;;;;;;5081550;28;20020;-65
2023/09/28 09:33:54;;;;;;;;;;;;;;;;;;5084578;28;19928;-65
2023/09/28 09:36:20;;;;;;;;;;;;;;;;;;5083625;28;19992;-66
2023/09/28 09:38:47;;;;;;;;;;;;;;;;;;5071388;28;19970;-66
2023/09/28 09:41:13;;;;;;;;;;;;;;;;;;5074097;28;19946;-65
2023/09/28 09:43:39;;;;;;;;;;;;;;;;;;5075074;28;20702;-65
2023/09/28 09:46:05;;;;;;;;;;;;;;;;;;5082611;28;20018;-65
2023/09/28 09:48:31;;;;;;;;;;;;;;;;;;5081140;28;20022;-65
2023/09/28 09:50:57;;;;;;;;;;;;;;;;;;5077313;28;19931;-65
2023/09/28 09:53:24;;;;;;;;;;;;;;;;;;5081899;28;20405;-65
2023/09/28 09:55:50;;;;;;;;;;;;;;;;;;5082009;28;19924;-66
2023/09/28 09:58:16;;;;;;;;;;;;;;;;;;5081180;28;20393;-65
2023/09/28 10:00:42;;;;;;;;;;;;;;;;;;5082071;28;20039;-65
2023/09/28 10:03:08;;;;;;;;;;;;;;;;;;5081376;28;20035;-65
2023/09/28 10:05:34;;;;;;;;;;;;;;;;;;5073611;28;19924;-65
2023/09/28 10:08:01;;;;;;;;;;;;;;;;;;5072259;28;19928;-65
2023/09/28 10:10:27;;;;;;;;;;;;;;;;;;5081842;28;19924;-66
2023/09/28 10:12:53;;;;;;;;;;;;;;;;;;5062333;28;20042;-66
2023/09/28 10:15:19;;;;;;;;;;;;;;;;;;5080781;28;19953;-65
2023/09/28 10:17:45;;;;;;;;;;;;;;;;;;5080821;28;19963;-65
2023/09/28 10:20:13;;;;;;;;;;;;;;;;;;5081642;28;20070;-65
2023/09/28 10:22:39;;;;;;;;;;;;;;;;;;5081499;28;19924;-65
2023/09/28 10:25:06;;;;;;;;;;;;;;;;;;5076012;28;19931;-65
2023/09/28 10:27:32;;;;;;;;;;;;;;;;;;5080282;28;20000;-65
2023/09/28 10:29:58;;;;;;;;;;;;;;;;;;5081636;28;20471;-65
2023/09/28 10:32:23;;;;;;;;;;;;;;;;;;5072713;28;19928;-65
2023/09/28 10:34:49;;;;;;;;;;;;;;;;;;5080659;28;19936;-65
2023/09/28 10:37:18;;;;;;;;;;;;;;;;;;5080970;28;20348;-65
2023/09/28 10:39:44;;;;;;;;;;;;;;;;;;5081499;28;19931;-65
2023/09/28 10:42:10;;;;;;;;;;;;;;;;;;5080793;28;19939;-65
2023/09/28 10:44:36;;;;;;;;;;;;;;;;;;5060975;28;19936;-65
2023/09/28 10:47:02;;;;;;;;;;;;;;;;;;5075986;28;19924;-65
2023/09/28 10:49:28;;;;;;;;;;;;;;;;;;5074993;28;19928;-65
2023/09/28 10:51:55;;;;;;;;;;;;;;;;;;5075252;28;19924;-65
2023/09/28 10:54:21;;;;;;;;;;;;;;;;;;5070295;28;19982;-65
2023/09/28 10:56:48;;;;;;;;;;;;;;;;;;5063659;28;19928;-65
2023/09/28 10:59:14;;;;;;;;;;;;;;;;;;5080523;28;19928;-66
2023/09/28 11:01:40;;;;;;;;;;;;;;;;;;5079164;28;20037;-65
2023/09/28 11:04:06;;;;;;;;;;;;;;;;;;5080035;28;19935;-66
2023/09/28 11:06:33;;;;;;;;;;;;;;;;;;5078726;28;19936;-60
2023/09/28 11:09:01;;;;;;;;;;;;;;;;;;5077635;28;19924;-60
2023/09/28 11:11:27;;;;;;;;;;;;;;;;;;5075123;28;19931;-60
2023/09/28 11:13:53;;;;;;;;;;;;;;;;;;5079838;28;19924;-60
2023/09/28 11:16:20;;;;;;;;;;;;;;;;;;5080653;28;19935;-61
2023/09/28 11:18:46;;;;;;;;;;;;;;;;;;5076030;28;19947;-60
2023/09/28 11:21:12;;;;;;;;;;;;;;;;;;5079415;28;20408;-60
2023/09/28 11:23:40;;;;;;;;;;;;;;;;;;5074088;28;19928;-60
2023/09/28 11:26:06;;;;;;;;;;;;;;;;;;5080837;28;19935;-60
2023/09/28 11:28:31;;;;;;;;;;;;;;;;;;5080229;28;20016;-60
2023/09/28 11:30:57;;;;;;;;;;;;;;;;;;5078857;28;20015;-60
2023/09/28 11:33:23;;;;;;;;;;;;;;;;;;5080606;28;19981;-60
2023/09/28 11:35:49;;;;;;;;;;;;;;;;;;5079969;28;19943;-60
2023/09/28 11:38:16;;;;;;;;;;;;;;;;;;5078496;28;20331;-61
2023/09/28 11:40:42;;;;;;;;;;;;;;;;;;5080202;28;19928;-61
2023/09/28 11:43:08;;;;;;;;;;;;;;;;;;5078066;28;19928;-60
2023/09/28 11:45:34;;;;;;;;;;;;;;;;;;5080552;28;19928;-60
2023/09/28 11:48:00;;;;;;;;;;;;;;;;;;5079137;28;20018;-60
2023/09/28 11:50:26;;;;;;;;;;;;;;;;;;5074410;28;20023;-61
2023/09/28 11:52:53;;;;;;;;;;;;;;;;;;5079429;28;20483;-61
2023/09/28 11:55:19;;;;;;;;;;;;;;;;;;5079801;28;19928;-61
2023/09/28 11:57:45;;;;;;;;;;;;;;;;;;5076586;28;19985;-61
2023/09/28 12:00:17;;;;;;;;;;;;;;;;;;5071560;28;19932;-60
2023/09/28 12:02:43;;;;;;;;;;;;;;;;;;5082757;28;19929;-60
2023/09/28 12:05:09;;;;;;;;;;;;;;;;;;5067642;28;19924;-59
2023/09/28 12:07:35;;;;;;;;;;;;;;;;;;5082847;28;19935;-60
2023/09/28 12:10:01;;;;;;;;;;;;;;;;;;5083111;28;19935;-60
2023/09/28 12:12:27;;;;;;;;;;;;;;;;;;5081657;28;19963;-60
2023/09/28 12:14:53;;;;;;;;;;;;;;;;;;5083316;28;19935;-59
2023/09/28 12:17:19;;;;;;;;;;;;;;;;;;5076792;28;19935;-59
2023/09/28 12:19:45;;;;;;;;;;;;;;;;;;5064634;28;20374;-59
2023/09/28 12:22:11;;;;;;;;;;;;;;;;;;5063637;28;19924;-59
2023/09/28 12:24:37;;;;;;;;;;;;;;;;;;5077953;28;19931;-59
2023/09/28 12:27:06;;;;;;;;;;;;;;;;;;5076036;28;20022;-59
2023/09/28 12:29:32;;;;;;;;;;;;;;;;;;5061113;28;20025;-59
2023/09/28 12:31:58;;;;;;;;;;;;;;;;;;5082882;28;19952;-59
2023/09/28 12:34:26;;;;;;;;;;;;;;;;;;5082808;28;19924;-59
2023/09/28 12:36:53;;;;;;;;;;;;;;;;;;5081986;28;19984;-58
2023/09/28 12:39:21;;;;;;;;;;;;;;;;;;5075870;28;20031;-59
2023/09/28 12:41:47;;;;;;;;;;;;;;;;;;5081446;28;20022;-59
2023/09/28 12:44:13;;;;;;;;;;;;;;;;;;5078524;28;20401;-61
2023/09/28 12:46:39;;;;;;;;;;;;;;;;;;5083131;28;19928;-61
2023/09/28 12:49:05;;;;;;;;;;;;;;;;;;5083371;28;19982;-61
2023/09/28 12:51:31;;;;;;;;;;;;;;;;;;5082599;28;19939;-61
2023/09/28 12:53:57;;;;;;;;;;;;;;;;;;5064676;28;19924;-61
2023/09/28 12:56:23;;;;;;;;;;;;;;;;;;5082160;28;19935;-60
2023/09/28 12:58:49;;;;;;;;;;;;;;;;;;5074242;28;19925;-62
2023/09/28 13:01:15;;;;;;;;;;;;;;;;;;5073767;28;19931;-61
2023/09/28 13:03:41;;;;;;;;;;;;;;;;;;5082872;28;19928;-61
2023/09/28 13:06:09;;;;;;;;;;;;;;;;;;5083116;28;19936;-62
2023/09/28 13:08:35;;;;;;;;;;;;;;;;;;5082348;28;19928;-61
2023/09/28 13:11:02;;;;;;;;;;;;;;;;;;5072324;28;19928;-61
2023/09/28 13:13:28;;;;;;;;;;;;;;;;;;5073134;28;19953;-61
2023/09/28 13:15:54;;;;;;;;;;;;;;;;;;5061180;28;19986;-61
2023/09/28 13:18:21;;;;;;;;;;;;;;;;;;5061989;28;20368;-61
2023/09/28 13:20:46;;;;;;;;;;;;;;;;;;5064760;28;20425;-61
2023/09/28 13:23:12;;;;;;;;;;;;;;;;;;5065409;28;19924;-61
2023/09/28 13:25:38;;;;;;;;;;;;;;;;;;5067730;28;19931;-63
2023/09/28 13:28:08;;;;;;;;;;;;;;;;;;5060990;28;20508;-62
2023/09/28 13:30:38;;;;;;;;;;;;;;;;;;5056608;28;20333;-62
2023/09/28 13:33:04;;;;;;;;;;;;;;;;;;5063947;28;19924;-60
2023/09/28 13:35:30;;;;;;;;;;;;;;;;;;5057680;28;19932;-60
2023/09/28 13:37:56;;;;;;;;;;;;;;;;;;5056133;28;20390;-61
2023/09/28 13:40:33;;;;;;;;;;;;;;;;;;5043613;28;20386;-61
2023/09/28 13:42:59;;;;;;;;;;;;;;;;;;5055354;28;19924;-61
2023/09/28 13:45:25;;;;;;;;;;;;;;;;;;5064626;28;19924;-61
2023/09/28 13:47:51;;;;;;;;;;;;;;;;;;5063064;28;19924;-61
2023/09/28 13:50:17;;;;;;;;;;;;;;;;;;5055603;28;20399;-61
2023/09/28 13:52:46;;;;;;;;;;;;;;;;;;5062376;28;20043;-61
2023/09/28 13:55:16;;;;;;;;;;;;;;;;;;5062361;28;19924;-61
2023/09/28 13:57:43;;;;;;;;;;;;;;;;;;5043480;28;19929;-61
2023/09/28 14:00:14;;;;;;;;;;;;;;;;;;5056325;28;20175;-61
2023/09/28 14:02:41;;;;;;;;;;;;;;;;;;5050828;28;19932;-61
2023/09/28 14:05:07;;;;;;;;;;;;;;;;;;5059368;28;19927;-61
2023/09/28 14:07:33;;;;;;;;;;;;;;;;;;5063392;28;19925;-61
2023/09/28 14:09:59;;;;;;;;;;;;;;;;;;5063734;28;19920;-61
2023/09/28 14:12:26;;;;;;;;;;;;;;;;;;5063120;28;19924;-61
2023/09/28 14:14:52;;;;;;;;;;;;;;;;;;5074413;28;20009;-61
2023/09/28 14:17:18;;;;;;;;;;;;;;;;;;5083420;28;19985;-61
2023/09/28 14:19:44;;;;;;;;;;;;;;;;;;5081689;28;19924;-61
2023/09/28 14:22:10;;;;;;;;;;;;;;;;;;5082001;28;20072;-61
2023/09/28 14:24:36;;;;;;;;;;;;;;;;;;5083234;28;19931;-61
2023/09/28 14:27:02;;;;;;;;;;;;;;;;;;5083079;28;19931;-61
2023/09/28 14:29:28;;;;;;;;;;;;;;;;;;5083266;28;19925;-60
2023/09/28 14:31:54;;;;;;;;;;;;;;;;;;5083590;28;20412;-61
2023/09/28 14:34:20;;;;;;;;;;;;;;;;;;5083009;28;19935;-61
2023/09/28 14:36:46;;;;;;;;;;;;;;;;;;5082478;28;19975;-61
2023/09/28 14:39:11;;;;;;;;;;;;;;;;;;5082110;28;19924;-61
2023/09/28 14:41:38;;;;;;;;;;;;;;;;;;5081671;28;19924;-60
2023/09/28 14:44:05;;;;;;;;;;;;;;;;;;5081261;28;19928;-61
2023/09/28 14:46:31;;;;;;;;;;;;;;;;;;5082552;28;20011;-61
2023/09/28 14:48:57;;;;;;;;;;;;;;;;;;5083686;28;20465;-61
2023/09/28 14:51:25;;;;;;;;;;;;;;;;;;5081969;28;19930;-61
2023/09/28 14:53:51;;;;;;;;;;;;;;;;;;5081851;28;19936;-61
2023/09/28 14:56:17;;;;;;;;;;;;;;;;;;5081338;28;19928;-61
2023/09/28 14:58:43;;;;;;;;;;;;;;;;;;5082309;28;19928;-61
2023/09/28 15:01:09;;;;;;;;;;;;;;;;;;5079293;28;20340;-61
2023/09/28 15:03:35;;;;;;;;;;;;;;;;;;5070198;28;19978;-62
2023/09/28 15:06:02;;;;;;;;;;;;;;;;;;5073111;28;19928;-59
2023/09/28 15:08:28;;;;;;;;;;;;;;;;;;5078621;28;20012;-61
2023/09/28 15:10:54;;;;;;;;;;;;;;;;;;5074572;28;20413;-61
2023/09/28 15:13:20;;;;;;;;;;;;;;;;;;5071397;28;19928;-63
2023/09/28 15:15:46;;;;;;;;;;;;;;;;;;5062764;28;19928;-60
2023/09/28 15:18:11;;;;;;;;;;;;;;;;;;5070830;28;19991;-60
2023/09/28 15:20:40;;;;;;;;;;;;;;;;;;5067400;28;19929;-60
2023/09/28 15:23:06;;;;;;;;;;;;;;;;;;5077637;28;20393;-60
2023/09/28 15:25:32;;;;;;;;;;;;;;;;;;5079147;28;19928;-61
2023/09/28 15:27:58;;;;;;;;;;;;;;;;;;5080588;28;20365;-60
2023/09/28 15:30:24;;;;;;;;;;;;;;;;;;5075595;28;19934;-60
2023/09/28 15:32:50;;;;;;;;;;;;;;;;;;5079365;28;19928;-60
2023/09/28 15:35:16;;;;;;;;;;;;;;;;;;5079765;28;19924;-60
2023/09/28 15:37:43;;;;;;;;;;;;;;;;;;5084662;28;19924;-60
2023/09/28 15:40:09;;;;;;;;;;;;;;;;;;5084765;28;20412;-61
2023/09/28 15:42:35;;;;;;;;;;;;;;;;;;5084093;28;19972;-61
2023/09/28 15:45:01;;;;;;;;;;;;;;;;;;5084359;28;20377;-61
2023/09/28 15:47:27;;;;;;;;;;;;;;;;;;5084399;28;19951;-61
2023/09/28 15:49:53;;;;;;;;;;;;;;;;;;5082046;28;20294;-61
2023/09/28 15:52:19;;;;;;;;;;;;;;;;;;5084360;28;19924;-62
2023/09/28 15:54:45;;;;;;;;;;;;;;;;;;5079647;28;20497;-60
2023/09/28 15:57:11;;;;;;;;;;;;;;;;;;5082075;28;19993;-60
2023/09/28 15:59:37;;;;;;;;;;;;;;;;;;5083478;28;20042;-60
2023/09/28 16:02:03;;;;;;;;;;;;;;;;;;5082951;28;19946;-60
2023/09/28 16:04:29;;;;;;;;;;;;;;;;;;5079856;28;20603;-60
2023/09/28 16:06:56;;;;;;;;;;;;;;;;;;5079239;28;19924;-59
2023/09/28 16:09:23;;;;;;;;;;;;;;;;;;5082228;28;20004;-59
2023/09/28 16:11:49;;;;;;;;;;;;;;;;;;5081162;28;19924;-60
2023/09/28 16:14:15;;;;;;;;;;;;;;;;;;5082666;28;20433;-60
2023/09/28 16:16:41;;;;;;;;;;;;;;;;;;5083442;28;20741;-60
2023/09/28 16:19:07;;;;;;;;;;;;;;;;;;5083430;28;19928;-60
2023/09/28 16:21:33;;;;;;;;;;;;;;;;;;5080938;28;20009;-61
2023/09/28 16:23:58;;;;;;;;;;;;;;;;;;5076849;28;19924;-60
2023/09/28 16:26:24;;;;;;;;;;;;;;;;;;5064941;28;19924;-60
2023/09/28 16:28:51;;;;;;;;;;;;;;;;;;5073765;28;19986;-60
2023/09/28 16:31:17;;;;;;;;;;;;;;;;;;5083663;28;19924;-61
2023/09/28 16:33:43;;;;;;;;;;;;;;;;;;5082467;28;19924;-61
2023/09/28 16:36:09;;;;;;;;;;;;;;;;;;5082832;28;19928;-61
2023/09/28 16:38:35;;;;;;;;;;;;;;;;;;5075110;28;19955;-60